M I D A S
Marine Information and Data Acquisition System
Tripno 1454 of the Zeeleeuw from 2008-04-09 07:03:28 to 2008-04-09 10:24:47
Back to CruiseResearch ActivitiesStationsMapUnderway DataData graphs

EquipmentUnitsComment
TimeDGPSUTC
LatitudeDGPSDM.mWGS84
LongitudeDGPSDM.mWGS84
TemperatureSBE03/SBE38deg celciusITS90
ConductivitySBE21S/mITS90
SalinitySBE21 Practical Salinity Units
ChlorophylAChelsea fluorimeterg/lCalibrated in Aceton
Missing or incorrect values are displayed as -999
Sea surface data collected by the RV Zeeleeuw from 2008-04-09 07:06:11 to 2008-04-09 10:35:00
Time Latitude Longitude Temperature Conductivity Salinity ChlorophylA
2008-04-09 07:07:20 51°13.685 2°55.877 14.5465 0.211513 1.272185 -1.766697
2008-04-09 07:08:20 51°13.727 2°55.768 14.5481 0.210586 1.26644 -1.766697
2008-04-09 07:09:20 51°13.791 2°55.668 14.5489 0.21038 1.265087 -1.766697
2008-04-09 07:10:20 51°13.875 2°55.615 14.5502 0.209351 1.258571 -1.766697
2008-04-09 07:11:20 51°13.945 2°55.642 14.5511 0.209454 1.259658 -1.766697
2008-04-09 07:12:20 51°13.964 2°55.644 14.5525 0.209557 1.260334 -1.766697
2008-04-09 07:13:20 51°14.004 2°55.543 14.5539 0.211924 1.2757 -1.766697
2008-04-09 07:14:20 51°14.102 2°55.431 14.5562 0.211307 1.271908 -1.766697
2008-04-09 07:15:20 51°14.214 2°55.322 14.5591 0.20966 1.261641 -1.766697
2008-04-09 07:16:19 51°14.307 2°55.176 14.5624 0.209866 1.263213 -1.766697
2008-04-09 07:17:17 51°14.392 2°54.987 14.5657 0.207807 1.250146 -1.766697
2008-04-09 07:18:16 51°14.519 2°54.803 14.5687 0.215012 1.296682 -1.766697
2008-04-09 07:19:16 51°14.687 2°54.75 14.5718 0.216145 1.304353 -1.766697
2008-04-09 07:20:17 51°14.858 2°54.766 14.5761 0.211101 1.271704 -1.766697
2008-04-09 07:21:16 51°15.023 2°54.778 14.5799 0.210277 1.266749 -1.766697
2008-04-09 07:22:16 51°15.188 2°54.802 14.5839 0.211718 1.276335 -1.766697
2008-04-09 07:23:16 51°15.346 2°54.871 14.5874 0.213262 1.286263 -1.766697
2008-04-09 07:24:16 51°15.489 2°54.996 14.591 0.20966 1.26327 -1.766697
2008-04-09 07:25:16 51°15.63 2°55.124 14.5945 0.20863 1.256789 -1.766697
2008-04-09 07:26:16 51°15.775 2°55.241 14.5978 0.209248 1.261096 -1.766697
2008-04-09 07:27:16 51°15.921 2°55.355 14.6013 0.209454 1.262475 -1.766697
2008-04-09 07:28:16 51°16.067 2°55.466 14.6048 0.210072 1.266664 -1.766697
2008-04-09 07:29:16 51°16.213 2°55.576 14.6085 0.20863 1.25839 -1.766697
2008-04-09 07:30:16 51°16.355 2°55.692 14.612 0.210174 1.267929 -1.766697
2008-04-09 07:31:16 51°16.497 2°55.805 14.6161 0.210483 1.269988 -1.766697
2008-04-09 07:32:16 51°16.636 2°55.927 14.6199 0.209557 1.264299 -1.766697
2008-04-09 07:33:16 51°16.772 2°56.053 14.6239 0.20966 1.265123 -1.766697
2008-04-09 07:34:16 51°16.909 2°56.181 14.6278 0.208733 1.259481 -1.731873
2008-04-09 07:35:16 51°17.043 2°56.318 14.6315 0.210483 1.270847 -1.731873
2008-04-09 07:36:16 51°17.176 2°56.467 14.6356 0.21038 1.27061 -1.766697
2008-04-09 07:37:16 51°17.308 2°56.618 14.6393 0.209454 1.264597 -1.766697
2008-04-09 07:38:16 51°17.448 2°56.751 14.6438 0.208939 1.261667 -1.766697
2008-04-09 07:39:16 51°17.588 2°56.879 14.6478 0.209248 1.26385 -1.731873
2008-04-09 07:40:16 51°17.726 2°57.008 14.6521 0.209145 1.263513 -1.766697
2008-04-09 07:41:16 51°17.814 2°57.088 14.657 0.212233 1.283861 -1.801521
2008-04-09 07:42:16 51°17.855 2°57.129 14.6618 0.21388 1.294581 -1.801521
2008-04-09 07:43:16 51°17.9 2°57.162 14.6665 0.211719 1.28222 -1.766697
2008-04-09 07:44:16 51°17.959 2°57.201 14.6716 0.212336 1.285985 -1.766697
2008-04-09 07:45:16 51°18.023 2°57.279 14.6775 0.214086 1.298131 -1.766697
2008-04-09 07:46:16 51°18.113 2°57.36 14.6819 0.215939 1.312847 -1.557753
2008-04-09 07:47:16 51°18.13 2°57.463 14.6879 0.219645 1.335632 -1.766697
2008-04-09 07:48:16 51°18.107 2°57.463 14.694 0.218306 1.326725 -1.766697
2008-04-09 07:49:16 51°18.081 2°57.437 14.7006 0.216659 1.316336 -1.766697
2008-04-09 07:50:16 51°18.056 2°57.405 14.7067 0.215321 1.308027 -1.766697
2008-04-09 07:51:16 51°18.032 2°57.369 14.7137 0.214292 1.301365 -1.766697
2008-04-09 07:52:16 51°18.01 2°57.332 14.72 0.214601 1.303974 -1.766697
2008-04-09 07:53:16 51°17.99 2°57.293 14.7257 0.213469 1.296729 -1.766697
2008-04-09 07:54:16 51°17.97 2°57.252 14.7308 0.210483 1.277316 -1.766697
2008-04-09 07:55:16 51°17.946 2°57.226 14.7357 0.210483 1.277515 -1.766697
2008-04-09 07:56:16 51°17.951 2°57.266 14.7403 0.206984 1.25472 -1.697049
2008-04-09 07:57:16 51°17.972 2°57.329 14.7437 0.21141 1.284711 -1.766697
2008-04-09 07:58:16 51°17.964 2°57.394 14.747 0.211513 1.28537 -1.766697
2008-04-09 07:59:16 51°17.949 2°57.471 14.751 0.211719 1.287038 -1.766697
2008-04-09 08:00:16 51°17.931 2°57.556 14.7551 0.212336 1.291194 -1.766697
2008-04-09 08:01:16 51°17.931 2°57.636 14.7599 0.208734 1.26806 -1.766697
2008-04-09 08:02:16 51°17.958 2°57.7 14.7646 0.207293 1.258918 -1.766697
2008-04-09 08:03:16 51°17.99 2°57.766 14.7704 0.209557 1.27365 -1.766697
2008-04-09 08:04:16 51°18.02 2°57.834 14.7776 0.210278 1.278811 -1.766697
2008-04-09 08:05:16 51°18.051 2°57.903 14.7845 0.208528 1.268151 -1.801521
2008-04-09 08:06:16 51°18.083 2°57.971 14.7922 0.208528 1.268522 -1.766697
2008-04-09 08:07:17 51°18.115 2°58.041 14.8004 0.209557 1.27539 -1.766697
2008-04-09 08:08:16 51°18.146 2°58.108 14.8092 0.208734 1.270585 -1.766697
2008-04-09 08:09:16 51°18.176 2°58.174 14.8188 0.20966 1.276249 -1.766697
2008-04-09 08:10:16 51°18.207 2°58.24 14.8285 0.207396 1.262232 -1.766697
2008-04-09 08:11:16 51°18.237 2°58.305 14.8391 0.206263 1.255198 -1.766697
2008-04-09 08:12:16 51°18.267 2°58.368 14.8494 0.206263 1.255738 -1.766697
2008-04-09 08:13:16 51°18.298 2°58.431 14.8612 0.206366 1.256766 -1.731873
2008-04-09 08:14:16 51°18.327 2°58.494 14.8728 0.207498 1.264422 -1.766697
2008-04-09 08:15:16 51°18.351 2°58.557 14.8848 0.20544 1.25237 -1.697049
2008-04-09 08:16:17 51°18.358 2°58.621 14.8978 0.208219 1.269791 -1.766697
2008-04-09 08:17:16 51°18.306 2°58.641 14.9103 0.209557 1.279864 -1.801521
2008-04-09 08:18:16 51°18.256 2°58.622 14.9237 0.205852 1.255553 -1.731873
2008-04-09 08:19:16 51°18.219 2°58.605 14.9372 0.205337 1.252151 -1.801521
2008-04-09 08:20:16 51°18.191 2°58.588 14.9517 0.206057 1.257343 -1.766697
2008-04-09 08:21:17 51°18.154 2°58.576 14.9656 0.207396 1.266711 -1.801521
2008-04-09 08:22:16 51°18.092 2°58.504 14.9807 0.210072 1.284408 -1.766697
2008-04-09 08:23:16 51°18.039 2°58.353 14.9956 0.206984 1.264113 -1.766697
2008-04-09 08:24:16 51°17.973 2°58.142 15.0107 0.206778 1.26331 -1.801521
2008-04-09 08:25:16 51°17.891 2°57.885 15.0265 0.206881 1.263848 -1.766697
2008-04-09 08:26:16 51°17.801 2°57.602 15.0421 0.206469 1.260903 -1.662225
2008-04-09 08:27:17 51°17.691 2°57.28 15.0574 0.205234 1.253012 -1.627401
2008-04-09 08:28:16 51°17.586 2°56.964 15.0738 0.204102 1.246371 -1.766697
2008-04-09 08:29:17 51°17.477 2°56.635 15.09 0.204411 1.248504 -1.766697
2008-04-09 08:30:16 51°17.372 2°56.316 15.1059 0.20544 1.255074 -1.662225
2008-04-09 08:31:16 51°17.24 2°56.017 15.1226 0.20297 1.239021 -1.592577
2008-04-09 08:32:16 51°17.06 2°55.795 15.1383 0.203793 1.245315 -1.627401
2008-04-09 08:33:16 51°16.89 2°55.553 15.1543 0.209351 1.28216 -1.766697
2008-04-09 08:34:16 51°16.753 2°55.262 15.1704 0.209043 1.281202 -1.766697
2008-04-09 08:35:16 51°16.679 2°54.919 15.1873 0.212131 1.302605 -1.766697
2008-04-09 08:36:16 51°16.635 2°54.562 15.2046 0.209557 1.285841 -1.766697
2008-04-09 08:37:16 51°16.692 2°54.228 15.2225 0.212234 1.302552 -1.766697
2008-04-09 08:38:16 51°16.762 2°53.9 15.2412 0.206058 1.261424 -1.557753
2008-04-09 08:39:17 51°16.813 2°53.56 15.2599 0.206058 1.26217 -1.766697
2008-04-09 08:40:16 51°16.865 2°53.239 15.2781 0.205131 1.255875 -1.697049
2008-04-09 08:41:16 51°16.93 2°52.943 15.2957 0.208837 1.282273 -1.801521
2008-04-09 08:42:16 51°17.072 2°52.717 15.3149 0.211204 1.297254 -1.801521
2008-04-09 08:43:16 51°17.254 2°52.624 15.3337 0.211307 1.298176 -1.801521
2008-04-09 08:44:16 51°17.444 2°52.597 15.3535 0.207293 1.271389 -1.766697
2008-04-09 08:45:16 51°17.628 2°52.575 15.3733 0.209557 1.286704 -1.801521
2008-04-09 08:46:16 51°17.692 2°52.453 15.3935 0.203278 1.245285 -1.731873
2008-04-09 08:47:16 51°17.604 2°52.307 15.4137 0.205749 1.2607 -1.766697
2008-04-09 08:48:16 51°17.463 2°52.163 15.4333 0.208322 1.279527 -1.766697
2008-04-09 08:49:16 51°17.353 2°52.108 15.4523 0.209866 1.290714 -1.766697
2008-04-09 08:50:16 51°17.281 2°52.107 15.4727 0.209969 1.292147 -1.766697
2008-04-09 08:51:17 51°17.214 2°52.13 15.4933 0.210793 1.297947 -1.766697
2008-04-09 08:52:17 51°17.128 2°52.209 15.5141 0.207808 1.27794 -1.766697
2008-04-09 08:53:16 51°17.075 2°52.33 15.5353 0.208425 1.281737 -1.766697
2008-04-09 08:54:16 51°17.051 2°52.415 15.5565 0.210896 1.298563 -1.801521
2008-04-09 08:55:16 51°17.042 2°52.471 15.5765 0.20791 1.279315 -1.766697
2008-04-09 08:56:16 51°17.108 2°52.503 15.5978 0.206264 1.267543 -1.766697
2008-04-09 08:57:16 51°17.261 2°52.498 15.6186 0.207087 1.274233 -1.766697
2008-04-09 08:58:16 51°17.446 2°52.491 15.6384 0.206058 1.26759 -1.766697
2008-04-09 08:59:16 51°17.633 2°52.494 15.6586 0.206675 1.271918 -1.766697
2008-04-09 09:00:16 51°17.817 2°52.514 15.6784 0.208528 1.285558 -1.766697
2008-04-09 09:01:16 51°17.994 2°52.598 15.6985 0.210793 1.29895 -1.766697
2008-04-09 09:02:17 51°18.152 2°52.737 15.7179 0.21316 1.31688 -1.766697
2008-04-09 09:03:17 51°18.19 2°53.009 15.737 0.209352 1.290264 -1.766697
2008-04-09 09:04:16 51°18.24 2°53.278 15.7564 0.206572 1.272436 -1.766697
2008-04-09 09:05:16 51°18.285 2°53.556 15.7748 0.210175 1.296613 -1.766697
2008-04-09 09:06:16 51°18.343 2°53.824 15.7938 0.206161 1.269212 -1.801521
2008-04-09 09:07:16 51°18.406 2°54.085 15.813 0.205028 1.264279 -1.731873
2008-04-09 09:08:17 51°18.467 2°54.349 15.8315 0.208425 1.28788 -1.801521
2008-04-09 09:09:17 51°18.495 2°54.626 15.8497 0.206881 1.277988 -1.766697
2008-04-09 09:10:17 51°18.453 2°54.903 15.8676 0.214704 1.328145 -1.766697
2008-04-09 09:11:16 51°18.368 2°55.164 15.8851 0.209558 1.294785 -1.766697
2008-04-09 09:12:17 51°18.303 2°55.276 15.9024 0.212749 1.317867 -1.731873
2008-04-09 09:13:20 51°18.293 2°55.241 15.9191 0.210175 1.302251 -1.766697
2008-04-09 09:14:19 51°18.284 2°55.204 15.9362 0.212028 1.314713 -1.766697
2008-04-09 09:15:18 51°18.273 2°55.167 15.9536 0.210587 1.304912 -1.766697
2008-04-09 09:16:17 51°18.259 2°55.13 15.9712 0.212337 1.316993 -1.766697
2008-04-09 09:17:17 51°18.243 2°55.093 15.9887 0.210278 1.303339 -1.801521
2008-04-09 09:18:16 51°18.227 2°55.057 16.0062 0.211513 1.312033 -1.801521
2008-04-09 09:19:17 51°18.207 2°55.021 16.0236 0.209969 1.302103 -1.766697
2008-04-09 09:20:16 51°18.187 2°54.987 16.0402 0.209558 1.299128 -1.766697
2008-04-09 09:21:17 51°18.166 2°54.953 16.0569 0.206264 1.277149 -1.766697
2008-04-09 09:22:16 51°18.144 2°54.921 16.0732 0.206161 1.276503 -1.766697
2008-04-09 09:23:17 51°18.108 2°54.911 16.0895 0.206058 1.275959 -1.766697
2008-04-09 09:24:17 51°18.095 2°54.963 16.1064 0.203485 1.258786 -1.766697
2008-04-09 09:25:16 51°18.141 2°54.998 16.1226 0.20472 1.267616 -1.731873
2008-04-09 09:26:17 51°18.162 2°55.058 16.1379 0.206881 1.282123 -1.801521
2008-04-09 09:27:17 51°18.176 2°55.131 16.1526 0.205955 1.276027 -1.766697
2008-04-09 09:28:16 51°18.195 2°55.201 16.1668 0.207808 1.287603 -1.731873
2008-04-09 09:29:16 51°18.212 2°55.275 16.1816 0.207808 1.287398 -1.766697
2008-04-09 09:30:17 51°18.232 2°55.346 16.1957 0.210793 1.308685 -1.731873
2008-04-09 09:31:17 51°18.244 2°55.422 16.2107 0.206881 1.282558 -1.766697
2008-04-09 09:32:16 51°18.258 2°55.495 16.2248 0.206161 1.278469 -1.766697
2008-04-09 09:33:17 51°18.274 2°55.571 16.2391 0.207705 1.289249 -1.766697
2008-04-09 09:34:16 51°18.29 2°55.644 16.2529 0.206676 1.282163 -1.766697
2008-04-09 09:35:16 51°18.307 2°55.719 16.2662 0.206573 1.281875 -1.731873
2008-04-09 09:36:16 51°18.324 2°55.797 16.2795 0.206778 1.284094 -1.766697
2008-04-09 09:37:16 51°18.344 2°55.87 16.2925 0.205132 1.2732 -1.801521
2008-04-09 09:38:17 51°18.385 2°55.906 16.3062 0.204617 1.269633 -1.766697
2008-04-09 09:39:17 51°18.438 2°55.916 16.3194 0.203073 1.259347 -1.766697
2008-04-09 09:40:17 51°18.494 2°55.897 16.3336 0.204102 1.266677 -1.766697
2008-04-09 09:41:16 51°18.541 2°55.875 16.3473 0.204411 1.268644 -1.766697
2008-04-09 09:42:17 51°18.587 2°55.85 16.36 0.203176 1.260625 -1.766697
2008-04-09 09:43:16 51°18.63 2°55.826 16.3724 0.202455 1.255693 -1.697049
2008-04-09 09:44:16 51°18.672 2°55.795 16.3858 0.203485 1.262617 -1.766697
2008-04-09 09:45:16 51°18.711 2°55.749 16.3989 0.201632 1.250041 -1.766697
2008-04-09 09:46:16 51°18.742 2°55.739 16.4125 0.202764 1.258389 -1.801521
2008-04-09 09:47:17 51°18.749 2°55.742 16.4255 0.202147 1.253827 -1.731873
2008-04-09 09:48:17 51°18.743 2°55.733 16.439 0.20297 1.259129 -1.662225
2008-04-09 09:49:17 51°18.732 2°55.714 16.4527 0.202147 1.254254 -1.731873
2008-04-09 09:50:16 51°18.718 2°55.69 16.4658 0.205749 1.278568 -1.766697
2008-04-09 09:51:17 51°18.701 2°55.659 16.4777 0.206676 1.28337 -1.766697
2008-04-09 09:52:17 51°18.684 2°55.625 16.4907 0.20472 1.272166 -1.766697
2008-04-09 09:53:17 51°18.664 2°55.59 16.5035 0.204926 1.273819 -1.766697
2008-04-09 09:54:16 51°18.648 2°55.561 16.5165 0.206573 1.284292 -1.801521
2008-04-09 09:55:16 51°18.665 2°55.516 16.5293 0.202764 1.25902 -1.731873
2008-04-09 09:56:17 51°18.648 2°55.363 16.5422 0.199059 1.234416 -1.662225
2008-04-09 09:57:16 51°18.577 2°55.056 16.5555 0.206367 1.282533 -1.766697
2008-04-09 09:58:17 51°18.501 2°54.695 16.5683 0.203382 1.26397 -1.731873
2008-04-09 09:59:16 51°18.419 2°54.351 16.5795 0.203279 1.265202 -1.731873
2008-04-09 10:00:17 51°18.339 2°53.994 16.5914 0.205749 1.28119 -1.766697
2008-04-09 10:01:16 51°18.261 2°53.651 16.6029 0.203896 1.269402 -1.801521
2008-04-09 10:02:17 51°18.172 2°53.297 16.6151 0.205235 1.27743 -1.697049
2008-04-09 10:03:16 51°18.095 2°52.95 16.6268 0.204823 1.275424 -1.731873
2008-04-09 10:04:16 51°18.004 2°52.608 16.6385 0.200191 1.24628 -1.697049
2008-04-09 10:05:17 51°17.814 2°52.393 16.6507 0.198338 1.234118 -1.697049
2008-04-09 10:06:16 51°17.594 2°52.338 16.6613 0.201014 1.251803 -1.731873
2008-04-09 10:07:17 51°17.367 2°52.365 16.6719 0.200911 1.251834 -1.697049
2008-04-09 10:08:16 51°17.157 2°52.435 16.6819 0.200397 1.24768 -1.766697
2008-04-09 10:09:16 51°16.959 2°52.56 16.6923 0.201426 1.255185 -1.766697
2008-04-09 10:10:17 51°16.768 2°52.718 16.7027 0.202455 1.26232 -1.766697
2008-04-09 10:11:16 51°16.586 2°52.88 16.7134 0.205132 1.280514 -1.662225
2008-04-09 10:12:17 51°16.402 2°53.056 16.7244 0.205338 1.282644 -1.766697
2008-04-09 10:13:17 51°16.219 2°53.207 16.7356 0.204205 1.274683 -1.766697
2008-04-09 10:14:17 51°16.036 2°53.355 16.7461 0.206264 1.288192 -1.766697
2008-04-09 10:15:16 51°15.857 2°53.509 16.7561 0.203691 1.272199 -1.766697
2008-04-09 10:16:17 51°15.667 2°53.66 16.7663 0.205235 1.281449 -1.731873
2008-04-09 10:17:17 51°15.486 2°53.816 16.7765 0.203176 1.268815 -1.766697
2008-04-09 10:18:16 51°15.32 2°53.995 16.7867 0.202867 1.26658 -1.766697
2008-04-09 10:19:16 51°15.15 2°54.17 16.7965 0.203073 1.267371 -1.627401
2008-04-09 10:20:17 51°14.979 2°54.352 16.8071 0.202867 1.266913 -1.627401
2008-04-09 10:21:17 51°14.807 2°54.537 16.8171 0.203897 1.274763 -1.801521
2008-04-09 10:22:17 51°14.653 2°54.708 16.8267 0.205441 1.284851 -1.766697
2008-04-09 10:23:17 51°14.526 2°54.863 16.836 0.205852 1.287433 -1.731873
2008-04-09 10:24:16 51°14.405 2°55.014 16.8446 0.203382 1.27153 -1.766697
2008-04-09 10:25:16 51°14.297 2°55.197 16.854 0.203176 1.270534 -1.801521
2008-04-09 10:26:20 51°14.175 2°55.372 16.8636 0.205029 1.282633 -1.766697
2008-04-09 10:27:20 51°14.051 2°55.472 16.8741 0.204823 1.281199 -1.766697
2008-04-09 10:28:20 51°13.962 2°55.533 16.8838 0.203897 1.274737 -1.766697
2008-04-09 10:29:20 51°13.882 2°55.59 16.8906 0.202867 1.267963 -1.766697
2008-04-09 10:30:20 51°13.802 2°55.657 16.8948 0.202558 1.265905 -1.766697
2008-04-09 10:31:19 51°13.739 2°55.747 16.8965 0.20225 1.263746 -1.766697
2008-04-09 10:32:19 51°13.689 2°55.849 16.8965 0.203176 1.269969 -1.766697
2008-04-09 10:33:19 51°13.666 2°55.93 16.8954 0.203073 1.269317 -1.766697
2008-04-09 10:34:18 51°13.662 2°55.953 16.8944 0.203176 1.27002 -1.766697